Terminal Aerodrome Forecast
Issued by NWS

Home | Current Version | Previous Version | Text Only | Print | Product List | Glossary On
Versions: 1 2 3 4 5 6 7 8 9 10 11 12 13 14 15 16
482
FTUS43 KEAX 190520
TAFMKC
TAF
KMKC 190520Z 1906/2006 20004KT P6SM SCT250
     FM190800 18004KT 4SM BR BKN012
     FM191430 17009KT P6SM SCT025 BKN200
     FM200100 15006KT P6SM BKN020=

USA.gov is the U.S. government's official web portal to all federal, state and local government web resources and services.